sensor_id;sensor_type;location;lat;lon;timestamp;temperature;humidity
10883;DHT22;5494;51.796;10.952;2023-08-12T00:02:17;20.90;99.90
10883;DHT22;5494;51.796;10.952;2023-08-12T00:04:45;20.90;99.90
10883;DHT22;5494;51.796;10.952;2023-08-12T00:07:14;20.90;99.90
10883;DHT22;5494;51.796;10.952;2023-08-12T00:09:42;21.00;99.90
10883;DHT22;5494;51.796;10.952;2023-08-12T00:12:10;21.10;99.90
10883;DHT22;5494;51.796;10.952;2023-08-12T00:14:40;21.10;99.90
10883;DHT22;5494;51.796;10.952;2023-08-12T00:17:08;21.10;99.90
10883;DHT22;5494;51.796;10.952;2023-08-12T00:19:36;21.20;99.90
10883;DHT22;5494;51.796;10.952;2023-08-12T00:22:04;21.30;99.90
10883;DHT22;5494;51.796;10.952;2023-08-12T00:24:33;20.40;99.90
10883;DHT22;5494;51.796;10.952;2023-08-12T00:27:01;21.30;99.90
10883;DHT22;5494;51.796;10.952;2023-08-12T00:29:29;21.40;99.90
10883;DHT22;5494;51.796;10.952;2023-08-12T00:32:00;21.40;99.90
10883;DHT22;5494;51.796;10.952;2023-08-12T00:34:28;21.40;99.90
10883;DHT22;5494;51.796;10.952;2023-08-12T00:36:56;21.40;99.90
10883;DHT22;5494;51.796;10.952;2023-08-12T00:39:25;21.40;99.90
10883;DHT22;5494;51.796;10.952;2023-08-12T00:41:53;21.40;99.90
10883;DHT22;5494;51.796;10.952;2023-08-12T00:44:21;21.40;99.90
10883;DHT22;5494;51.796;10.952;2023-08-12T00:46:49;21.50;99.90
10883;DHT22;5494;51.796;10.952;2023-08-12T00:49:19;21.50;99.90
10883;DHT22;5494;51.796;10.952;2023-08-12T00:51:49;21.50;99.90
10883;DHT22;5494;51.796;10.952;2023-08-12T00:54:18;21.60;99.90
10883;DHT22;5494;51.796;10.952;2023-08-12T00:56:49;21.60;99.90
10883;DHT22;5494;51.796;10.952;2023-08-12T00:59:20;21.80;99.90
10883;DHT22;5494;51.796;10.952;2023-08-12T01:01:50;21.80;99.90
10883;DHT22;5494;51.796;10.952;2023-08-12T01:04:21;21.80;99.90
10883;DHT22;5494;51.796;10.952;2023-08-12T01:06:50;21.90;99.90
10883;DHT22;5494;51.796;10.952;2023-08-12T01:09:18;21.90;99.90
10883;DHT22;5494;51.796;10.952;2023-08-12T01:11:50;21.90;99.90
10883;DHT22;5494;51.796;10.952;2023-08-12T01:14:28;22.00;99.90
10883;DHT22;5494;51.796;10.952;2023-08-12T01:17:05;21.90;99.90
10883;DHT22;5494;51.796;10.952;2023-08-12T01:19:40;21.90;99.90
10883;DHT22;5494;51.796;10.952;2023-08-12T01:22:09;21.90;99.90
10883;DHT22;5494;51.796;10.952;2023-08-12T01:24:40;22.00;99.90
10883;DHT22;5494;51.796;10.952;2023-08-12T01:27:11;21.90;99.90
10883;DHT22;5494;51.796;10.952;2023-08-12T01:29:42;21.90;99.90
10883;DHT22;5494;51.796;10.952;2023-08-12T01:32:18;21.90;99.90
10883;DHT22;5494;51.796;10.952;2023-08-12T01:35:00;21.90;99.90
10883;DHT22;5494;51.796;10.952;2023-08-12T01:37:35;21.90;99.90
10883;DHT22;5494;51.796;10.952;2023-08-12T01:40:08;21.90;99.90
10883;DHT22;5494;51.796;10.952;2023-08-12T01:42:39;22.00;99.90
10883;DHT22;5494;51.796;10.952;2023-08-12T01:45:08;22.00;99.90
10883;DHT22;5494;51.796;10.952;2023-08-12T01:47:37;22.00;99.90
10883;DHT22;5494;51.796;10.952;2023-08-12T01:50:06;22.00;99.90
10883;DHT22;5494;51.796;10.952;2023-08-12T01:52:34;22.00;99.90
10883;DHT22;5494;51.796;10.952;2023-08-12T01:55:03;22.00;99.90
10883;DHT22;5494;51.796;10.952;2023-08-12T01:57:33;22.00;99.90
10883;DHT22;5494;51.796;10.952;2023-08-12T02:00:04;22.00;99.90
10883;DHT22;5494;51.796;10.952;2023-08-12T02:02:43;22.00;99.90
10883;DHT22;5494;51.796;10.952;2023-08-12T02:05:13;21.80;99.90
10883;DHT22;5494;51.796;10.952;2023-08-12T02:07:42;21.80;99.90
10883;DHT22;5494;51.796;10.952;2023-08-12T02:10:11;21.80;99.90
10883;DHT22;5494;51.796;10.952;2023-08-12T02:12:42;21.70;99.90
10883;DHT22;5494;51.796;10.952;2023-08-12T02:15:11;21.70;99.90
10883;DHT22;5494;51.796;10.952;2023-08-12T02:17:39;21.70;99.90
10883;DHT22;5494;51.796;10.952;2023-08-12T02:20:07;21.50;99.90
10883;DHT22;5494;51.796;10.952;2023-08-12T02:22:36;21.40;99.90
10883;DHT22;5494;51.796;10.952;2023-08-12T02:25:04;21.20;99.90
10883;DHT22;5494;51.796;10.952;2023-08-12T02:27:33;21.00;99.90
10883;DHT22;5494;51.796;10.952;2023-08-12T02:30:03;21.00;99.90
10883;DHT22;5494;51.796;10.952;2023-08-12T02:32:32;20.90;99.90
10883;DHT22;5494;51.796;10.952;2023-08-12T02:35:00;20.80;99.90
10883;DHT22;5494;51.796;10.952;2023-08-12T02:37:29;20.70;99.90
10883;DHT22;5494;51.796;10.952;2023-08-12T02:39:57;20.70;99.90
10883;DHT22;5494;51.796;10.952;2023-08-12T02:42:25;20.70;99.90
10883;DHT22;5494;51.796;10.952;2023-08-12T02:44:54;20.70;99.90
10883;DHT22;5494;51.796;10.952;2023-08-12T02:47:24;20.50;99.90
10883;DHT22;5494;51.796;10.952;2023-08-12T02:49:52;20.40;99.90
10883;DHT22;5494;51.796;10.952;2023-08-12T02:52:20;20.40;99.90
10883;DHT22;5494;51.796;10.952;2023-08-12T02:54:48;20.30;99.90
10883;DHT22;5494;51.796;10.952;2023-08-12T02:57:16;20.10;99.90
10883;DHT22;5494;51.796;10.952;2023-08-12T02:59:45;20.00;99.90
10883;DHT22;5494;51.796;10.952;2023-08-12T03:02:13;20.00;99.90
10883;DHT22;5494;51.796;10.952;2023-08-12T03:04:44;20.00;99.90
10883;DHT22;5494;51.796;10.952;2023-08-12T03:07:12;20.10;99.90
10883;DHT22;5494;51.796;10.952;2023-08-12T03:09:40;20.20;99.90
10883;DHT22;5494;51.796;10.952;2023-08-12T03:12:08;20.10;99.90
10883;DHT22;5494;51.796;10.952;2023-08-12T03:14:37;20.10;99.90
10883;DHT22;5494;51.796;10.952;2023-08-12T03:17:05;20.10;99.90
10883;DHT22;5494;51.796;10.952;2023-08-12T03:19:35;20.10;99.90
10883;DHT22;5494;51.796;10.952;2023-08-12T03:22:06;20.10;99.90
10883;DHT22;5494;51.796;10.952;2023-08-12T03:24:36;20.10;99.90
10883;DHT22;5494;51.796;10.952;2023-08-12T03:27:04;20.20;99.90
10883;DHT22;5494;51.796;10.952;2023-08-12T03:29:34;20.20;99.90
10883;DHT22;5494;51.796;10.952;2023-08-12T03:32:02;20.30;99.90
10883;DHT22;5494;51.796;10.952;2023-08-12T03:34:30;20.30;99.90
10883;DHT22;5494;51.796;10.952;2023-08-12T03:36:59;20.30;99.90
10883;DHT22;5494;51.796;10.952;2023-08-12T03:39:28;20.30;99.90
10883;DHT22;5494;51.796;10.952;2023-08-12T03:41:58;20.30;99.90
10883;DHT22;5494;51.796;10.952;2023-08-12T03:44:26;20.30;99.90
10883;DHT22;5494;51.796;10.952;2023-08-12T03:46:55;20.40;99.90
10883;DHT22;5494;51.796;10.952;2023-08-12T03:49:25;20.60;99.90
10883;DHT22;5494;51.796;10.952;2023-08-12T03:51:53;20.80;99.90
10883;DHT22;5494;51.796;10.952;2023-08-12T03:54:21;21.00;99.90
10883;DHT22;5494;51.796;10.952;2023-08-12T03:56:51;21.20;99.90
10883;DHT22;5494;51.796;10.952;2023-08-12T03:59:20;21.50;99.90
10883;DHT22;5494;51.796;10.952;2023-08-12T04:01:48;21.60;99.90
10883;DHT22;5494;51.796;10.952;2023-08-12T04:04:16;21.70;99.90
10883;DHT22;5494;51.796;10.952;2023-08-12T04:06:44;21.90;99.90
10883;DHT22;5494;51.796;10.952;2023-08-12T04:09:15;22.00;99.90
10883;DHT22;5494;51.796;10.952;2023-08-12T04:11:43;22.10;99.90
10883;DHT22;5494;51.796;10.952;2023-08-12T04:14:13;22.30;99.90
10883;DHT22;5494;51.796;10.952;2023-08-12T04:16:42;22.40;99.90
10883;DHT22;5494;51.796;10.952;2023-08-12T04:19:10;22.50;99.90
10883;DHT22;5494;51.796;10.952;2023-08-12T04:21:39;22.60;99.90
10883;DHT22;5494;51.796;10.952;2023-08-12T04:24:08;22.70;99.90
10883;DHT22;5494;51.796;10.952;2023-08-12T04:26:36;22.70;99.90
10883;DHT22;5494;51.796;10.952;2023-08-12T04:29:04;22.80;99.90
10883;DHT22;5494;51.796;10.952;2023-08-12T04:31:38;22.80;99.90
10883;DHT22;5494;51.796;10.952;2023-08-12T04:34:08;22.80;99.90
10883;DHT22;5494;51.796;10.952;2023-08-12T04:36:36;22.80;99.90
10883;DHT22;5494;51.796;10.952;2023-08-12T04:39:05;22.90;99.90
10883;DHT22;5494;51.796;10.952;2023-08-12T04:41:33;23.00;99.90
10883;DHT22;5494;51.796;10.952;2023-08-12T04:44:04;23.10;99.90
10883;DHT22;5494;51.796;10.952;2023-08-12T04:46:32;23.10;99.90
10883;DHT22;5494;51.796;10.952;2023-08-12T04:49:02;23.10;99.90
10883;DHT22;5494;51.796;10.952;2023-08-12T04:51:30;23.20;99.90
10883;DHT22;5494;51.796;10.952;2023-08-12T04:53:58;23.20;99.90
10883;DHT22;5494;51.796;10.952;2023-08-12T04:56:28;23.20;99.90
10883;DHT22;5494;51.796;10.952;2023-08-12T04:58:56;23.30;99.90
10883;DHT22;5494;51.796;10.952;2023-08-12T05:01:25;23.40;99.90
10883;DHT22;5494;51.796;10.952;2023-08-12T05:03:54;23.40;99.90
10883;DHT22;5494;51.796;10.952;2023-08-12T05:06:24;23.50;99.90
10883;DHT22;5494;51.796;10.952;2023-08-12T05:08:53;23.50;99.90
10883;DHT22;5494;51.796;10.952;2023-08-12T05:11:21;23.60;99.90
10883;DHT22;5494;51.796;10.952;2023-08-12T05:13:50;23.60;99.90
10883;DHT22;5494;51.796;10.952;2023-08-12T05:16:19;23.50;99.90
10883;DHT22;5494;51.796;10.952;2023-08-12T05:18:47;23.50;99.90
10883;DHT22;5494;51.796;10.952;2023-08-12T05:21:15;23.40;99.90
10883;DHT22;5494;51.796;10.952;2023-08-12T05:23:45;23.30;99.90
10883;DHT22;5494;51.796;10.952;2023-08-12T05:26:13;23.20;99.90
10883;DHT22;5494;51.796;10.952;2023-08-12T05:28:41;23.20;99.90
10883;DHT22;5494;51.796;10.952;2023-08-12T05:31:09;23.00;99.90
10883;DHT22;5494;51.796;10.952;2023-08-12T05:33:37;22.80;99.90
10883;DHT22;5494;51.796;10.952;2023-08-12T05:36:05;22.60;99.90
10883;DHT22;5494;51.796;10.952;2023-08-12T05:38:33;22.40;99.90
10883;DHT22;5494;51.796;10.952;2023-08-12T05:41:03;22.00;99.90
10883;DHT22;5494;51.796;10.952;2023-08-12T05:43:34;21.80;99.90
10883;DHT22;5494;51.796;10.952;2023-08-12T05:46:02;21.50;99.90
10883;DHT22;5494;51.796;10.952;2023-08-12T05:48:30;21.40;99.90
10883;DHT22;5494;51.796;10.952;2023-08-12T05:50:58;21.30;99.90
10883;DHT22;5494;51.796;10.952;2023-08-12T05:53:26;21.20;99.90
10883;DHT22;5494;51.796;10.952;2023-08-12T05:55:54;21.10;99.90
10883;DHT22;5494;51.796;10.952;2023-08-12T05:58:24;21.10;99.90
10883;DHT22;5494;51.796;10.952;2023-08-12T06:00:52;21.00;99.90
10883;DHT22;5494;51.796;10.952;2023-08-12T06:03:20;21.10;99.90
10883;DHT22;5494;51.796;10.952;2023-08-12T06:05:48;21.00;99.90
10883;DHT22;5494;51.796;10.952;2023-08-12T06:08:17;21.00;99.90
10883;DHT22;5494;51.796;10.952;2023-08-12T06:10:45;21.00;99.90
10883;DHT22;5494;51.796;10.952;2023-08-12T06:13:13;20.80;99.90
10883;DHT22;5494;51.796;10.952;2023-08-12T06:15:42;20.80;99.90
10883;DHT22;5494;51.796;10.952;2023-08-12T06:18:10;20.80;99.90
10883;DHT22;5494;51.796;10.952;2023-08-12T06:20:39;20.90;99.90
10883;DHT22;5494;51.796;10.952;2023-08-12T06:23:07;21.00;99.90
10883;DHT22;5494;51.796;10.952;2023-08-12T06:25:35;21.00;99.90
10883;DHT22;5494;51.796;10.952;2023-08-12T06:28:04;21.10;99.90
10883;DHT22;5494;51.796;10.952;2023-08-12T06:30:34;21.20;99.90
10883;DHT22;5494;51.796;10.952;2023-08-12T06:33:04;21.20;99.90
10883;DHT22;5494;51.796;10.952;2023-08-12T06:35:32;21.20;99.90
10883;DHT22;5494;51.796;10.952;2023-08-12T06:38:00;21.20;99.90
10883;DHT22;5494;51.796;10.952;2023-08-12T06:40:29;21.20;99.90
10883;DHT22;5494;51.796;10.952;2023-08-12T06:42:57;21.30;99.90
10883;DHT22;5494;51.796;10.952;2023-08-12T06:45:25;21.30;99.90
10883;DHT22;5494;51.796;10.952;2023-08-12T06:47:53;21.30;99.90
10883;DHT22;5494;51.796;10.952;2023-08-12T06:50:23;21.20;99.90
10883;DHT22;5494;51.796;10.952;2023-08-12T06:52:51;21.20;99.90
10883;DHT22;5494;51.796;10.952;2023-08-12T06:55:19;21.20;99.90
10883;DHT22;5494;51.796;10.952;2023-08-12T06:57:47;21.20;99.90
10883;DHT22;5494;51.796;10.952;2023-08-12T07:00:15;21.30;99.90
10883;DHT22;5494;51.796;10.952;2023-08-12T07:02:44;21.30;99.90
10883;DHT22;5494;51.796;10.952;2023-08-12T07:05:12;21.40;99.90
10883;DHT22;5494;51.796;10.952;2023-08-12T07:07:41;21.50;99.90
10883;DHT22;5494;51.796;10.952;2023-08-12T07:10:10;21.60;99.90
10883;DHT22;5494;51.796;10.952;2023-08-12T07:12:38;21.70;99.90
10883;DHT22;5494;51.796;10.952;2023-08-12T07:15:07;21.60;99.90
10883;DHT22;5494;51.796;10.952;2023-08-12T07:17:37;21.50;99.90
10883;DHT22;5494;51.796;10.952;2023-08-12T07:20:06;21.50;99.90
10883;DHT22;5494;51.796;10.952;2023-08-12T07:22:35;21.50;99.90
10883;DHT22;5494;51.796;10.952;2023-08-12T07:25:05;21.40;99.90
10883;DHT22;5494;51.796;10.952;2023-08-12T07:27:34;21.30;99.90
10883;DHT22;5494;51.796;10.952;2023-08-12T07:30:02;21.40;99.90
10883;DHT22;5494;51.796;10.952;2023-08-12T07:32:31;21.40;99.90
10883;DHT22;5494;51.796;10.952;2023-08-12T07:34:59;21.40;99.90
10883;DHT22;5494;51.796;10.952;2023-08-12T07:37:28;21.50;99.90
10883;DHT22;5494;51.796;10.952;2023-08-12T07:39:56;21.50;99.90
10883;DHT22;5494;51.796;10.952;2023-08-12T07:42:25;21.50;99.90
10883;DHT22;5494;51.796;10.952;2023-08-12T07:44:53;21.50;99.90
10883;DHT22;5494;51.796;10.952;2023-08-12T07:47:22;21.60;99.90
10883;DHT22;5494;51.796;10.952;2023-08-12T07:49:50;21.60;99.90
10883;DHT22;5494;51.796;10.952;2023-08-12T07:52:18;21.60;99.90
10883;DHT22;5494;51.796;10.952;2023-08-12T07:54:46;21.60;99.90
10883;DHT22;5494;51.796;10.952;2023-08-12T07:57:14;21.50;99.90
10883;DHT22;5494;51.796;10.952;2023-08-12T07:59:44;21.50;99.90
10883;DHT22;5494;51.796;10.952;2023-08-12T08:02:12;21.50;99.90
10883;DHT22;5494;51.796;10.952;2023-08-12T08:04:41;21.50;99.90
10883;DHT22;5494;51.796;10.952;2023-08-12T08:07:09;21.50;99.90
10883;DHT22;5494;51.796;10.952;2023-08-12T08:09:38;21.50;99.90
10883;DHT22;5494;51.796;10.952;2023-08-12T08:12:08;21.40;99.90
10883;DHT22;5494;51.796;10.952;2023-08-12T08:14:37;21.50;99.90
10883;DHT22;5494;51.796;10.952;2023-08-12T08:17:07;21.50;99.90
10883;DHT22;5494;51.796;10.952;2023-08-12T08:19:35;21.50;99.90
10883;DHT22;5494;51.796;10.952;2023-08-12T08:22:03;21.50;99.90
10883;DHT22;5494;51.796;10.952;2023-08-12T08:24:31;21.50;99.90
10883;DHT22;5494;51.796;10.952;2023-08-12T08:26:59;21.50;99.90
10883;DHT22;5494;51.796;10.952;2023-08-12T08:29:28;21.60;99.90
10883;DHT22;5494;51.796;10.952;2023-08-12T08:31:56;21.60;99.90
10883;DHT22;5494;51.796;10.952;2023-08-12T08:34:25;21.70;99.90
10883;DHT22;5494;51.796;10.952;2023-08-12T08:36:53;21.80;99.90
10883;DHT22;5494;51.796;10.952;2023-08-12T08:39:22;21.90;99.90
10883;DHT22;5494;51.796;10.952;2023-08-12T08:41:52;21.90;99.90
10883;DHT22;5494;51.796;10.952;2023-08-12T08:44:22;21.90;99.90
10883;DHT22;5494;51.796;10.952;2023-08-12T08:46:52;21.90;99.90
10883;DHT22;5494;51.796;10.952;2023-08-12T08:49:21;22.00;99.90
10883;DHT22;5494;51.796;10.952;2023-08-12T08:51:52;22.00;99.90
10883;DHT22;5494;51.796;10.952;2023-08-12T08:54:21;22.20;99.90
10883;DHT22;5494;51.796;10.952;2023-08-12T08:56:49;22.30;99.90
10883;DHT22;5494;51.796;10.952;2023-08-12T08:59:26;22.40;99.90
10883;DHT22;5494;51.796;10.952;2023-08-12T09:01:55;22.30;99.90
10883;DHT22;5494;51.796;10.952;2023-08-12T09:04:26;22.30;99.90
10883;DHT22;5494;51.796;10.952;2023-08-12T09:06:58;22.40;99.90
10883;DHT22;5494;51.796;10.952;2023-08-12T09:09:27;22.50;99.90
10883;DHT22;5494;51.796;10.952;2023-08-12T09:11:56;22.50;99.90
10883;DHT22;5494;51.796;10.952;2023-08-12T09:14:24;22.50;99.90
10883;DHT22;5494;51.796;10.952;2023-08-12T09:16:52;22.50;99.90
10883;DHT22;5494;51.796;10.952;2023-08-12T09:19:23;22.40;99.90
10883;DHT22;5494;51.796;10.952;2023-08-12T09:21:51;22.50;99.90
10883;DHT22;5494;51.796;10.952;2023-08-12T09:24:25;22.60;99.90
10883;DHT22;5494;51.796;10.952;2023-08-12T09:26:54;22.60;99.90
10883;DHT22;5494;51.796;10.952;2023-08-12T09:29:23;22.70;99.90
10883;DHT22;5494;51.796;10.952;2023-08-12T09:31:52;22.70;99.90
10883;DHT22;5494;51.796;10.952;2023-08-12T09:34:20;22.70;99.90
10883;DHT22;5494;51.796;10.952;2023-08-12T09:36:51;22.80;99.90
10883;DHT22;5494;51.796;10.952;2023-08-12T09:39:20;22.80;99.90
10883;DHT22;5494;51.796;10.952;2023-08-12T09:41:49;22.90;99.90
10883;DHT22;5494;51.796;10.952;2023-08-12T09:44:19;23.10;99.90
10883;DHT22;5494;51.796;10.952;2023-08-12T09:46:47;23.30;99.90
10883;DHT22;5494;51.796;10.952;2023-08-12T09:49:17;23.60;99.90
10883;DHT22;5494;51.796;10.952;2023-08-12T09:51:45;23.90;99.90
10883;DHT22;5494;51.796;10.952;2023-08-12T09:54:13;24.30;99.90
10883;DHT22;5494;51.796;10.952;2023-08-12T09:56:48;24.60;99.90
10883;DHT22;5494;51.796;10.952;2023-08-12T09:59:19;24.80;99.90
10883;DHT22;5494;51.796;10.952;2023-08-12T10:01:50;24.90;99.90
10883;DHT22;5494;51.796;10.952;2023-08-12T10:04:22;24.90;99.90
10883;DHT22;5494;51.796;10.952;2023-08-12T10:06:52;24.90;99.90
10883;DHT22;5494;51.796;10.952;2023-08-12T10:09:21;24.80;99.90
10883;DHT22;5494;51.796;10.952;2023-08-12T10:11:52;24.80;99.90
10883;DHT22;5494;51.796;10.952;2023-08-12T10:14:21;25.00;99.90
10883;DHT22;5494;51.796;10.952;2023-08-12T10:16:50;25.30;99.90
10883;DHT22;5494;51.796;10.952;2023-08-12T10:19:34;25.60;99.90
10883;DHT22;5494;51.796;10.952;2023-08-12T10:22:04;25.90;99.90
10883;DHT22;5494;51.796;10.952;2023-08-12T10:24:34;26.10;99.90
10883;DHT22;5494;51.796;10.952;2023-08-12T10:27:04;26.20;99.90
10883;DHT22;5494;51.796;10.952;2023-08-12T10:29:35;26.30;99.90
10883;DHT22;5494;51.796;10.952;2023-08-12T10:32:03;26.10;99.90
10883;DHT22;5494;51.796;10.952;2023-08-12T10:34:31;26.50;99.90
10883;DHT22;5494;51.796;10.952;2023-08-12T10:37:02;26.60;99.90
10883;DHT22;5494;51.796;10.952;2023-08-12T10:39:32;26.70;99.90
10883;DHT22;5494;51.796;10.952;2023-08-12T10:42:01;26.90;99.90
10883;DHT22;5494;51.796;10.952;2023-08-12T10:44:39;27.20;99.90
10883;DHT22;5494;51.796;10.952;2023-08-12T10:47:16;27.40;99.90
10883;DHT22;5494;51.796;10.952;2023-08-12T10:49:48;27.80;99.90
10883;DHT22;5494;51.796;10.952;2023-08-12T10:52:27;28.20;99.90
10883;DHT22;5494;51.796;10.952;2023-08-12T10:55:16;28.50;99.90
10883;DHT22;5494;51.796;10.952;2023-08-12T10:57:45;28.60;99.90
10883;DHT22;5494;51.796;10.952;2023-08-12T11:00:16;28.40;99.90
10883;DHT22;5494;51.796;10.952;2023-08-12T11:02:49;28.10;99.90
10883;DHT22;5494;51.796;10.952;2023-08-12T11:05:19;27.70;99.90
10883;DHT22;5494;51.796;10.952;2023-08-12T11:07:55;27.70;99.90
10883;DHT22;5494;51.796;10.952;2023-08-12T11:10:26;27.70;99.90
10883;DHT22;5494;51.796;10.952;2023-08-12T11:12:59;27.70;99.90
10883;DHT22;5494;51.796;10.952;2023-08-12T11:15:31;27.70;99.90
10883;DHT22;5494;51.796;10.952;2023-08-12T11:18:03;27.70;99.90
10883;DHT22;5494;51.796;10.952;2023-08-12T11:20:33;27.60;99.90
10883;DHT22;5494;51.796;10.952;2023-08-12T11:23:02;27.50;99.90
10883;DHT22;5494;51.796;10.952;2023-08-12T11:25:33;27.30;99.90
10883;DHT22;5494;51.796;10.952;2023-08-12T11:28:04;27.20;99.90
10883;DHT22;5494;51.796;10.952;2023-08-12T11:30:34;27.10;99.90
10883;DHT22;5494;51.796;10.952;2023-08-12T11:33:03;27.10;99.90
10883;DHT22;5494;51.796;10.952;2023-08-12T11:35:31;27.10;99.90
10883;DHT22;5494;51.796;10.952;2023-08-12T11:38:00;27.30;99.90
10883;DHT22;5494;51.796;10.952;2023-08-12T11:40:28;27.60;99.90
10883;DHT22;5494;51.796;10.952;2023-08-12T11:42:59;27.90;99.90
10883;DHT22;5494;51.796;10.952;2023-08-12T11:45:27;28.10;99.90
10883;DHT22;5494;51.796;10.952;2023-08-12T11:47:57;28.20;99.90
10883;DHT22;5494;51.796;10.952;2023-08-12T11:50:26;28.40;99.90
10883;DHT22;5494;51.796;10.952;2023-08-12T11:52:55;28.30;99.90
10883;DHT22;5494;51.796;10.952;2023-08-12T11:55:25;28.50;99.90
10883;DHT22;5494;51.796;10.952;2023-08-12T11:57:53;28.50;99.90
10883;DHT22;5494;51.796;10.952;2023-08-12T12:00:22;28.60;99.90
10883;DHT22;5494;51.796;10.952;2023-08-12T12:02:54;28.70;99.90
10883;DHT22;5494;51.796;10.952;2023-08-12T12:05:27;28.70;99.90
10883;DHT22;5494;51.796;10.952;2023-08-12T12:07:59;28.50;99.90
10883;DHT22;5494;51.796;10.952;2023-08-12T12:10:28;28.40;99.90
10883;DHT22;5494;51.796;10.952;2023-08-12T12:13:03;28.30;99.90
10883;DHT22;5494;51.796;10.952;2023-08-12T12:15:37;28.30;99.90
10883;DHT22;5494;51.796;10.952;2023-08-12T12:18:10;28.30;99.90
10883;DHT22;5494;51.796;10.952;2023-08-12T12:20:53;28.20;99.90
10883;DHT22;5494;51.796;10.952;2023-08-12T12:23:31;28.30;99.90
10883;DHT22;5494;51.796;10.952;2023-08-12T12:26:01;28.40;99.90
10883;DHT22;5494;51.796;10.952;2023-08-12T12:28:31;28.50;99.90
10883;DHT22;5494;51.796;10.952;2023-08-12T12:30:59;28.40;99.90
10883;DHT22;5494;51.796;10.952;2023-08-12T12:33:29;28.40;99.90
10883;DHT22;5494;51.796;10.952;2023-08-12T12:35:57;28.60;99.90
10883;DHT22;5494;51.796;10.952;2023-08-12T12:38:28;28.60;99.90
10883;DHT22;5494;51.796;10.952;2023-08-12T12:40:56;28.40;99.90
10883;DHT22;5494;51.796;10.952;2023-08-12T12:43:25;28.30;99.90
10883;DHT22;5494;51.796;10.952;2023-08-12T12:45:53;28.30;99.90
10883;DHT22;5494;51.796;10.952;2023-08-12T12:48:21;28.20;99.90
10883;DHT22;5494;51.796;10.952;2023-08-12T12:50:51;28.20;99.90
10883;DHT22;5494;51.796;10.952;2023-08-12T12:53:19;28.10;99.90
10883;DHT22;5494;51.796;10.952;2023-08-12T12:55:48;28.30;99.90
10883;DHT22;5494;51.796;10.952;2023-08-12T12:58:16;28.60;99.90
10883;DHT22;5494;51.796;10.952;2023-08-12T13:00:44;28.80;99.90
10883;DHT22;5494;51.796;10.952;2023-08-12T13:03:12;29.00;99.90
10883;DHT22;5494;51.796;10.952;2023-08-12T13:05:41;29.20;99.90
10883;DHT22;5494;51.796;10.952;2023-08-12T13:08:10;29.30;99.90
10883;DHT22;5494;51.796;10.952;2023-08-12T13:10:38;29.40;99.90
10883;DHT22;5494;51.796;10.952;2023-08-12T13:13:06;29.30;99.90
10883;DHT22;5494;51.796;10.952;2023-08-12T13:15:35;29.30;99.90
10883;DHT22;5494;51.796;10.952;2023-08-12T13:18:04;29.30;99.90
10883;DHT22;5494;51.796;10.952;2023-08-12T13:20:32;29.20;99.90
10883;DHT22;5494;51.796;10.952;2023-08-12T13:23:00;29.00;99.90
10883;DHT22;5494;51.796;10.952;2023-08-12T13:25:31;28.90;99.90
10883;DHT22;5494;51.796;10.952;2023-08-12T13:28:00;29.00;99.90
10883;DHT22;5494;51.796;10.952;2023-08-12T13:30:29;29.10;99.90
10883;DHT22;5494;51.796;10.952;2023-08-12T13:32:57;29.30;99.90
10883;DHT22;5494;51.796;10.952;2023-08-12T13:35:27;29.50;99.90
10883;DHT22;5494;51.796;10.952;2023-08-12T13:37:56;29.50;99.90
10883;DHT22;5494;51.796;10.952;2023-08-12T13:40:27;29.40;99.90
10883;DHT22;5494;51.796;10.952;2023-08-12T13:42:59;29.20;99.90
10883;DHT22;5494;51.796;10.952;2023-08-12T13:45:27;29.00;99.90
10883;DHT22;5494;51.796;10.952;2023-08-12T13:47:55;28.60;99.90
10883;DHT22;5494;51.796;10.952;2023-08-12T13:50:24;28.50;99.90
10883;DHT22;5494;51.796;10.952;2023-08-12T13:52:52;28.30;99.90
10883;DHT22;5494;51.796;10.952;2023-08-12T13:55:20;28.20;99.90
10883;DHT22;5494;51.796;10.952;2023-08-12T13:57:48;28.20;99.90
10883;DHT22;5494;51.796;10.952;2023-08-12T14:00:18;28.30;99.90
10883;DHT22;5494;51.796;10.952;2023-08-12T14:02:46;28.10;99.90
10883;DHT22;5494;51.796;10.952;2023-08-12T14:05:15;28.00;99.90
10883;DHT22;5494;51.796;10.952;2023-08-12T14:07:43;27.80;99.90
10883;DHT22;5494;51.796;10.952;2023-08-12T14:10:11;27.80;99.90
10883;DHT22;5494;51.796;10.952;2023-08-12T14:12:39;27.60;99.90
10883;DHT22;5494;51.796;10.952;2023-08-12T14:15:07;27.60;99.90
10883;DHT22;5494;51.796;10.952;2023-08-12T14:17:38;27.40;99.90
10883;DHT22;5494;51.796;10.952;2023-08-12T14:20:07;27.40;99.90
10883;DHT22;5494;51.796;10.952;2023-08-12T14:22:35;27.30;99.90
10883;DHT22;5494;51.796;10.952;2023-08-12T14:25:04;27.30;99.90
10883;DHT22;5494;51.796;10.952;2023-08-12T14:27:34;27.30;99.90
10883;DHT22;5494;51.796;10.952;2023-08-12T14:30:02;27.30;99.90
10883;DHT22;5494;51.796;10.952;2023-08-12T14:32:30;27.30;99.90
10883;DHT22;5494;51.796;10.952;2023-08-12T14:35:00;27.30;99.90
10883;DHT22;5494;51.796;10.952;2023-08-12T14:37:28;27.30;99.90
10883;DHT22;5494;51.796;10.952;2023-08-12T14:39:56;27.30;99.90
10883;DHT22;5494;51.796;10.952;2023-08-12T14:42:25;27.30;99.90
10883;DHT22;5494;51.796;10.952;2023-08-12T14:44:53;28.50;99.90
10883;DHT22;5494;51.796;10.952;2023-08-12T14:47:21;27.20;99.90
10883;DHT22;5494;51.796;10.952;2023-08-12T14:49:49;27.10;99.90
10883;DHT22;5494;51.796;10.952;2023-08-12T14:52:21;27.00;99.90
10883;DHT22;5494;51.796;10.952;2023-08-12T14:54:49;27.00;99.90
10883;DHT22;5494;51.796;10.952;2023-08-12T14:57:17;26.80;99.90
10883;DHT22;5494;51.796;10.952;2023-08-12T14:59:45;26.80;99.90
10883;DHT22;5494;51.796;10.952;2023-08-12T15:02:21;26.80;99.90
10883;DHT22;5494;51.796;10.952;2023-08-12T15:04:50;26.80;99.90
10883;DHT22;5494;51.796;10.952;2023-08-12T15:07:21;26.90;99.90
10883;DHT22;5494;51.796;10.952;2023-08-12T15:09:49;26.90;99.90
10883;DHT22;5494;51.796;10.952;2023-08-12T15:12:18;26.90;99.90
10883;DHT22;5494;51.796;10.952;2023-08-12T15:14:47;26.90;99.90
10883;DHT22;5494;51.796;10.952;2023-08-12T15:17:15;26.90;99.90
10883;DHT22;5494;51.796;10.952;2023-08-12T15:19:43;26.70;99.90
10883;DHT22;5494;51.796;10.952;2023-08-12T15:22:11;26.70;99.90
10883;DHT22;5494;51.796;10.952;2023-08-12T15:24:40;26.70;99.90
10883;DHT22;5494;51.796;10.952;2023-08-12T15:27:08;26.60;99.90
10883;DHT22;5494;51.796;10.952;2023-08-12T15:29:37;26.50;99.90
10883;DHT22;5494;51.796;10.952;2023-08-12T15:32:05;26.50;99.90
10883;DHT22;5494;51.796;10.952;2023-08-12T15:34:33;26.40;99.90
10883;DHT22;5494;51.796;10.952;2023-08-12T15:37:01;26.50;99.90
10883;DHT22;5494;51.796;10.952;2023-08-12T15:39:30;26.50;99.90
10883;DHT22;5494;51.796;10.952;2023-08-12T15:42:00;26.50;99.90
10883;DHT22;5494;51.796;10.952;2023-08-12T15:44:29;26.60;99.90